Time;durP1;ratioP1;P1;durP2;ratioP2;P2;SDS_P1;SDS_P2;PMS_P1;PMS_P2;Temp;Humidity;BMP_temperature;BMP_pressure;BME280_temperature;BME280_humidity;BME280_pressure;Samples;Min_cycle;Max_cycle;Signal;HPM_P1;HPM_P2
2021/11/08 00:02:28;;;;;;;84.88;39.05;;;;;;;;;;5119857;28;20043;-86
2021/11/08 00:04:54;;;;;;;80.40;38.15;;;;;;;;;;5120233;27;20460;-86
2021/11/08 00:07:20;;;;;;;79.63;38.33;;;;;;;;;;5119556;27;20043;-84
2021/11/08 00:09:47;;;;;;;75.90;38.47;;;;;;;;;;5120373;28;20026;-83
2021/11/08 00:12:15;;;;;;;73.00;37.08;;;;;;;;;;5119205;28;20023;-84
2021/11/08 00:14:43;;;;;;;76.07;37.60;;;;;;;;;;5102491;28;20016;-84
2021/11/08 00:22:21;;;;;;;69.72;36.38;;;;;;;;;;5120261;28;20141;-85
2021/11/08 00:24:48;;;;;;;63.30;32.60;;;;;;;;;;5118898;28;20020;-84
2021/11/08 00:27:15;;;;;;;61.33;32.97;;;;;;;;;;5117546;28;20031;-84
2021/11/08 00:29:41;;;;;;;62.03;33.50;;;;;;;;;;5093921;28;20058;-84
2021/11/08 00:32:08;;;;;;;63.67;34.20;;;;;;;;;;5078112;28;20060;-85
2021/11/08 00:34:34;;;;;;;60.20;32.85;;;;;;;;;;5078126;28;20023;-85
2021/11/08 00:37:00;;;;;;;68.85;34.92;;;;;;;;;;5079060;28;20021;-84
2021/11/08 00:39:27;;;;;;;68.38;35.53;;;;;;;;;;5083733;28;20024;-83
2021/11/08 00:41:53;;;;;;;74.38;37.50;;;;;;;;;;5099220;28;20016;-84
2021/11/08 00:44:19;;;;;;;77.80;37.22;;;;;;;;;;5077938;28;20407;-84
2021/11/08 00:46:58;;;;;;;80.05;39.05;;;;;;;;;;5078764;28;20029;-83
2021/11/08 00:49:26;;;;;;;88.30;39.65;;;;;;;;;;5089995;28;20046;-85
2021/11/08 00:51:52;;;;;;;85.22;39.38;;;;;;;;;;5098865;28;20099;-85
2021/11/08 00:54:18;;;;;;;91.78;42.00;;;;;;;;;;5097820;28;20020;-85
2021/11/08 00:56:47;;;;;;;89.47;42.08;;;;;;;;;;5098935;28;20077;-85
2021/11/08 00:59:15;;;;;;;103.93;45.53;;;;;;;;;;5098972;28;20032;-85
2021/11/08 01:01:43;;;;;;;101.65;45.28;;;;;;;;;;5092764;28;20544;-85
2021/11/08 01:04:10;;;;;;;111.70;47.53;;;;;;;;;;5078148;28;20024;-84
2021/11/08 01:06:36;;;;;;;120.82;48.03;;;;;;;;;;5077283;28;20051;-84
2021/11/08 01:09:03;;;;;;;112.07;47.42;;;;;;;;;;5077429;28;20039;-84
2021/11/08 01:11:29;;;;;;;104.40;46.97;;;;;;;;;;5078135;28;20024;-83
2021/11/08 01:13:55;;;;;;;104.43;45.15;;;;;;;;;;5077265;28;20111;-84
2021/11/08 01:16:25;;;;;;;103.40;45.22;;;;;;;;;;5078271;28;20029;-84
2021/11/08 01:18:53;;;;;;;103.45;43.38;;;;;;;;;;5077242;28;20111;-84
2021/11/08 01:21:19;;;;;;;101.45;43.58;;;;;;;;;;5078448;28;20027;-84
2021/11/08 01:23:45;;;;;;;104.82;45.90;;;;;;;;;;5077146;28;20020;-84
2021/11/08 01:26:13;;;;;;;98.88;42.70;;;;;;;;;;5077452;28;20082;-84
2021/11/08 01:28:43;;;;;;;100.90;45.05;;;;;;;;;;5077794;28;20032;-84
2021/11/08 01:31:10;;;;;;;94.50;44.28;;;;;;;;;;5082301;28;20364;-84
2021/11/08 01:33:38;;;;;;;98.20;43.55;;;;;;;;;;5098564;28;20099;-84
2021/11/08 01:38:40;;;;;;;94.22;43.47;;;;;;;;;;5098592;28;20027;-85
2021/11/08 01:41:06;;;;;;;97.80;44.22;;;;;;;;;;5098103;28;20016;-85
2021/11/08 01:43:33;;;;;;;90.03;43.03;;;;;;;;;;5080128;28;20116;-84
2021/11/08 01:45:59;;;;;;;101.50;44.42;;;;;;;;;;5096762;28;20116;-84
2021/11/08 01:48:25;;;;;;;95.57;43.60;;;;;;;;;;5097891;28;20035;-83
2021/11/08 01:50:53;;;;;;;96.32;43.35;;;;;;;;;;5097838;28;20055;-84
2021/11/08 01:53:21;;;;;;;90.55;44.13;;;;;;;;;;5084590;28;20051;-84
2021/11/08 01:55:48;;;;;;;92.03;42.85;;;;;;;;;;5077993;28;20040;-86
2021/11/08 01:58:14;;;;;;;97.20;42.28;;;;;;;;;;5076862;28;20017;-83
2021/11/08 02:00:41;;;;;;;94.95;44.00;;;;;;;;;;5076344;28;20066;-83
2021/11/08 02:03:44;;;;;;;91.95;41.88;;;;;;;;;;5082186;28;20039;-84
2021/11/08 02:06:11;;;;;;;91.18;43.00;;;;;;;;;;5096664;28;20341;-85
2021/11/08 02:08:38;;;;;;;100.43;44.53;;;;;;;;;;5097749;28;20024;-85
2021/11/08 02:11:04;;;;;;;105.57;45.65;;;;;;;;;;5097772;28;20024;-86
2021/11/08 02:13:30;;;;;;;99.72;46.38;;;;;;;;;;5097877;28;20043;-86
2021/11/08 02:15:56;;;;;;;100.25;44.78;;;;;;;;;;5097270;28;20111;-85
2021/11/08 02:18:24;;;;;;;104.57;45.58;;;;;;;;;;5098039;28;20345;-84
2021/11/08 02:20:51;;;;;;;94.80;43.97;;;;;;;;;;5097549;28;20020;-85
2021/11/08 02:23:18;;;;;;;96.60;44.65;;;;;;;;;;5082625;28;20085;-85
2021/11/08 02:25:45;;;;;;;103.38;46.00;;;;;;;;;;5077744;28;20025;-85
2021/11/08 02:28:12;;;;;;;110.40;48.45;;;;;;;;;;5077677;28;20020;-85
2021/11/08 02:30:39;;;;;;;103.15;46.03;;;;;;;;;;5077184;28;20423;-85
2021/11/08 02:36:29;;;;;;;116.70;50.42;;;;;;;;;;5089326;28;20055;-84
2021/11/08 02:38:57;;;;;;;113.15;46.72;;;;;;;;;;5097362;28;20024;-84
2021/11/08 02:41:25;;;;;;;95.18;44.85;;;;;;;;;;5097398;28;20115;-85
2021/11/08 02:43:51;;;;;;;89.90;43.42;;;;;;;;;;5096366;28;20052;-84
2021/11/08 02:46:20;;;;;;;83.40;41.33;;;;;;;;;;5097362;28;20161;-84
2021/11/08 02:48:49;;;;;;;76.47;39.85;;;;;;;;;;5096750;28;20094;-85
2021/11/08 02:51:24;;;;;;;81.95;41.05;;;;;;;;;;5097618;28;20039;-84
2021/11/08 02:53:52;;;;;;;78.80;40.78;;;;;;;;;;5095291;28;20433;-84
2021/11/08 02:56:19;;;;;;;84.55;42.20;;;;;;;;;;5097297;28;20028;-84
2021/11/08 02:58:46;;;;;;;80.28;39.83;;;;;;;;;;5097012;28;20024;-84
2021/11/08 03:01:15;;;;;;;81.28;41.50;;;;;;;;;;5097350;28;20023;-84
2021/11/08 03:07:17;;;;;;;80.78;41.03;;;;;;;;;;5054045;28;20040;-84
2021/11/08 03:09:56;;;;;;;83.25;41.97;;;;;;;;;;5077267;28;20031;-83
2021/11/08 03:12:26;;;;;;;86.30;41.58;;;;;;;;;;5076855;28;20059;-84
2021/11/08 03:17:35;;;;;;;89.72;42.63;;;;;;;;;;5076836;28;20028;-83
2021/11/08 03:20:01;;;;;;;87.90;42.10;;;;;;;;;;5077072;28;20318;-83
2021/11/08 03:22:31;;;;;;;93.80;43.55;;;;;;;;;;5075891;28;20028;-84
2021/11/08 03:25:05;;;;;;;95.30;43.97;;;;;;;;;;5076941;28;20039;-84
2021/11/08 03:30:08;;;;;;;91.05;44.75;;;;;;;;;;5100457;28;20029;-83
2021/11/08 03:32:36;;;;;;;96.40;44.33;;;;;;;;;;5099502;28;20028;-83
2021/11/08 03:35:04;;;;;;;94.28;45.08;;;;;;;;;;5099729;28;20035;-83
2021/11/08 03:37:36;;;;;;;100.70;44.92;;;;;;;;;;5089006;28;20024;-83
2021/11/08 03:40:04;;;;;;;95.18;45.05;;;;;;;;;;5080021;28;20402;-83
2021/11/08 03:42:30;;;;;;;100.00;47.80;;;;;;;;;;5079023;28;20415;-83
2021/11/08 03:44:56;;;;;;;100.43;47.90;;;;;;;;;;5078947;28;20066;-84
2021/11/08 03:47:22;;;;;;;103.75;48.75;;;;;;;;;;5083838;28;20028;-84
2021/11/08 03:49:49;;;;;;;103.97;49.38;;;;;;;;;;5081156;28;20436;-84
2021/11/08 03:52:15;;;;;;;97.32;46.90;;;;;;;;;;5079666;28;20032;-84
2021/11/08 03:54:41;;;;;;;92.45;44.70;;;;;;;;;;5080061;28;20307;-84
2021/11/08 03:57:07;;;;;;;94.28;45.75;;;;;;;;;;5079719;28;20460;-83
2021/11/08 03:59:33;;;;;;;96.18;47.42;;;;;;;;;;5080850;28;20032;-84
2021/11/08 04:01:59;;;;;;;99.68;48.00;;;;;;;;;;5079684;28;20474;-84
2021/11/08 04:05:03;;;;;;;98.05;46.65;;;;;;;;;;5078477;28;20337;-84
2021/11/08 04:07:29;;;;;;;97.00;46.83;;;;;;;;;;5079359;28;20355;-84
2021/11/08 04:09:55;;;;;;;107.35;49.97;;;;;;;;;;5093669;28;20139;-85
2021/11/08 04:12:23;;;;;;;119.95;51.80;;;;;;;;;;5100090;28;20028;-84
2021/11/08 04:14:50;;;;;;;128.77;58.13;;;;;;;;;;5098901;28;20115;-85
2021/11/08 04:17:16;;;;;;;128.88;56.60;;;;;;;;;;5098843;28;20016;-85
2021/11/08 04:19:42;;;;;;;122.20;54.03;;;;;;;;;;5098600;28;20316;-85
2021/11/08 04:22:09;;;;;;;118.80;51.72;;;;;;;;;;5093531;28;20032;-85
2021/11/08 04:24:35;;;;;;;113.63;49.25;;;;;;;;;;5078426;28;20029;-85
2021/11/08 04:27:02;;;;;;;119.78;52.17;;;;;;;;;;5079221;28;20033;-85
2021/11/08 04:29:28;;;;;;;111.78;51.72;;;;;;;;;;5079168;28;20437;-85
2021/11/08 04:31:54;;;;;;;113.97;50.88;;;;;;;;;;5097726;28;20036;-85
2021/11/08 05:30:18;;;;;;;112.45;50.30;;;;;;;;;;5098429;28;20035;-86
2021/11/08 05:32:45;;;;;;;111.47;51.28;;;;;;;;;;5098693;28;20378;-85
2021/11/08 05:35:49;;;;;;;116.53;51.83;;;;;;;;;;5091211;28;20315;-85
2021/11/08 05:38:15;;;;;;;105.63;47.90;;;;;;;;;;5078016;28;20029;-84
2021/11/08 05:40:41;;;;;;;109.78;50.67;;;;;;;;;;5098206;28;20043;-85
2021/11/08 05:43:08;;;;;;;110.82;50.13;;;;;;;;;;5098343;28;20061;-86
2021/11/08 05:45:35;;;;;;;101.95;50.05;;;;;;;;;;5098419;28;20020;-85
2021/11/08 05:48:05;;;;;;;103.80;49.70;;;;;;;;;;5098169;28;20029;-85
2021/11/08 05:50:32;;;;;;;111.13;51.08;;;;;;;;;;5096214;28;20028;-84
2021/11/08 05:52:58;;;;;;;105.68;51.35;;;;;;;;;;5096814;28;20429;-84
2021/11/08 06:50:31;;;;;;;83.13;46.85;;;;;;;;;;5077572;28;20048;-85
2021/11/08 06:53:03;;;;;;;81.28;47.17;;;;;;;;;;5076568;28;20032;-85
2021/11/08 06:55:29;;;;;;;87.18;48.17;;;;;;;;;;5089275;28;20318;-85
2021/11/08 06:58:02;;;;;;;78.40;45.55;;;;;;;;;;5096313;28;20047;-85
2021/11/08 07:00:28;;;;;;;87.53;48.08;;;;;;;;;;5097322;28;20073;-85
2021/11/08 07:02:54;;;;;;;87.28;50.08;;;;;;;;;;5100585;28;20040;-83
2021/11/08 07:05:21;;;;;;;80.90;46.70;;;;;;;;;;5101107;28;20028;-82
2021/11/08 07:07:47;;;;;;;86.20;49.13;;;;;;;;;;5099666;28;20127;-82
2021/11/08 07:10:13;;;;;;;87.70;48.15;;;;;;;;;;5100416;28;20035;-83
2021/11/08 07:12:39;;;;;;;83.60;48.28;;;;;;;;;;5100750;28;20038;-83
2021/11/08 07:15:06;;;;;;;84.80;48.92;;;;;;;;;;5092485;28;20048;-83
2021/11/08 07:17:33;;;;;;;80.72;47.15;;;;;;;;;;5080748;28;20022;-83
2021/11/08 07:23:02;;;;;;;84.95;47.17;;;;;;;;;;5089383;28;20040;-83
2021/11/08 07:25:28;;;;;;;78.90;47.55;;;;;;;;;;5121040;28;20051;-83
2021/11/08 07:27:55;;;;;;;85.25;48.60;;;;;;;;;;5121043;28;20073;-85
2021/11/08 07:30:22;;;;;;;79.50;46.30;;;;;;;;;;5107618;28;20313;-85
2021/11/08 07:32:48;;;;;;;75.85;45.05;;;;;;;;;;5100570;28;20043;-84
2021/11/08 07:35:14;;;;;;;81.32;45.53;;;;;;;;;;5099580;28;20016;-84
2021/11/08 07:37:40;;;;;;;80.22;45.17;;;;;;;;;;5099445;28;20020;-84
2021/11/08 07:40:06;;;;;;;76.72;44.33;;;;;;;;;;5090443;28;20066;-84
2021/11/08 07:42:32;;;;;;;73.93;43.65;;;;;;;;;;5079978;28;20032;-83
2021/11/08 07:44:59;;;;;;;83.15;47.90;;;;;;;;;;5079740;28;20069;-83
2021/11/08 07:47:25;;;;;;;91.70;54.13;;;;;;;;;;5099735;28;20361;-83
2021/11/08 07:49:51;;;;;;;80.53;47.88;;;;;;;;;;5080137;28;20029;-83
2021/11/08 07:52:17;;;;;;;96.88;54.72;;;;;;;;;;5079407;28;20031;-84
2021/11/08 07:54:43;;;;;;;125.40;72.55;;;;;;;;;;5078947;28;20094;-84
2021/11/08 07:57:09;;;;;;;78.00;45.85;;;;;;;;;;5079076;28;20036;-83
2021/11/08 07:59:35;;;;;;;78.35;46.70;;;;;;;;;;5079637;28;20039;-84
2021/11/08 08:02:04;;;;;;;78.55;47.97;;;;;;;;;;5097555;28;20036;-83
2021/11/08 08:04:30;;;;;;;79.60;46.90;;;;;;;;;;5098845;28;20031;-85
2021/11/08 08:06:56;;;;;;;81.15;46.83;;;;;;;;;;5099990;28;20089;-84
2021/11/08 08:09:22;;;;;;;74.03;45.65;;;;;;;;;;5099595;28;20044;-83
2021/11/08 08:11:49;;;;;;;78.55;44.78;;;;;;;;;;5098450;28;20032;-83
2021/11/08 08:14:16;;;;;;;69.90;42.55;;;;;;;;;;5096709;28;20437;-82
2021/11/08 08:16:43;;;;;;;70.38;42.35;;;;;;;;;;5080665;28;20434;-83
2021/11/08 08:22:12;;;;;;;68.22;42.08;;;;;;;;;;5099803;28;20034;-83
2021/11/08 08:24:38;;;;;;;72.80;44.75;;;;;;;;;;5098302;28;20024;-83
2021/11/08 08:27:05;;;;;;;73.75;45.28;;;;;;;;;;5098730;28;20028;-83
2021/11/08 08:29:32;;;;;;;71.15;43.80;;;;;;;;;;5099394;28;20383;-83
2021/11/08 08:31:58;;;;;;;71.32;42.78;;;;;;;;;;5099442;28;20318;-83
2021/11/08 08:34:25;;;;;;;62.85;41.13;;;;;;;;;;5096614;28;20038;-83
2021/11/08 08:36:53;;;;;;;59.55;39.10;;;;;;;;;;5087053;28;20016;-83
2021/11/08 08:39:20;;;;;;;58.45;38.38;;;;;;;;;;5099444;28;20024;-83
2021/11/08 08:41:47;;;;;;;60.25;37.97;;;;;;;;;;5099447;28;20050;-82
2021/11/08 08:44:14;;;;;;;60.65;38.55;;;;;;;;;;5097861;28;20024;-83
2021/11/08 08:46:42;;;;;;;57.72;37.47;;;;;;;;;;5091023;28;20039;-83
2021/11/08 08:49:22;;;;;;;59.92;36.95;;;;;;;;;;5078602;28;20063;-83
2021/11/08 08:51:48;;;;;;;58.20;36.85;;;;;;;;;;5077469;28;20020;-83
2021/11/08 08:54:14;;;;;;;57.72;36.45;;;;;;;;;;5077594;28;20111;-83
2021/11/08 08:56:41;;;;;;;59.45;37.53;;;;;;;;;;5077336;28;20410;-83
2021/11/08 08:59:07;;;;;;;55.95;35.17;;;;;;;;;;5080305;28;20107;-84
2021/11/08 09:01:33;;;;;;;55.85;34.80;;;;;;;;;;5078802;28;20024;-84
2021/11/08 09:03:59;;;;;;;56.92;34.28;;;;;;;;;;5078717;28;20123;-83
2021/11/08 09:06:44;;;;;;;51.45;32.85;;;;;;;;;;5082856;28;20295;-83
2021/11/08 09:09:10;;;;;;;51.10;32.28;;;;;;;;;;5097677;28;20055;-85
2021/11/08 09:11:36;;;;;;;47.20;30.83;;;;;;;;;;5096251;28;20024;-84
2021/11/08 09:14:04;;;;;;;43.85;28.85;;;;;;;;;;5098466;28;20046;-83
2021/11/08 09:16:31;;;;;;;43.63;28.48;;;;;;;;;;5098829;28;20074;-83
2021/11/08 09:18:58;;;;;;;42.35;27.45;;;;;;;;;;5098351;28;20426;-83
2021/11/08 09:21:25;;;;;;;44.45;28.85;;;;;;;;;;5096355;28;20028;-83
2021/11/08 09:23:51;;;;;;;40.67;26.90;;;;;;;;;;5086366;28;20017;-82
2021/11/08 09:26:18;;;;;;;43.90;27.13;;;;;;;;;;5078326;28;20025;-83
2021/11/08 09:28:44;;;;;;;46.40;29.88;;;;;;;;;;5077920;28;20425;-85
2021/11/08 09:31:10;;;;;;;43.13;26.95;;;;;;;;;;5078197;28;20036;-82
2021/11/08 09:33:37;;;;;;;45.53;26.42;;;;;;;;;;5097461;28;20028;-82
2021/11/08 09:36:05;;;;;;;45.70;28.52;;;;;;;;;;5097889;28;20020;-81
2021/11/08 09:38:31;;;;;;;46.97;29.08;;;;;;;;;;5097628;28;20016;-82
2021/11/08 09:40:58;;;;;;;40.47;26.45;;;;;;;;;;5096957;28;20122;-83
2021/11/08 09:43:24;;;;;;;39.10;24.65;;;;;;;;;;5097463;28;20024;-83
2021/11/08 09:45:51;;;;;;;36.70;25.17;;;;;;;;;;5096777;28;20028;-82
2021/11/08 09:48:18;;;;;;;35.10;23.05;;;;;;;;;;5090914;28;20055;-82
2021/11/08 09:50:45;;;;;;;38.00;24.65;;;;;;;;;;5078060;28;20025;-82
2021/11/08 09:53:12;;;;;;;32.03;21.92;;;;;;;;;;5077493;28;20069;-82
2021/11/08 09:55:40;;;;;;;31.65;19.25;;;;;;;;;;5077473;28;20047;-82
2021/11/08 09:58:06;;;;;;;29.77;19.48;;;;;;;;;;5076814;28;20035;-83
2021/11/08 10:00:43;;;;;;;22.80;16.50;;;;;;;;;;5083909;28;20024;-83
2021/11/08 10:03:18;;;;;;;23.65;15.68;;;;;;;;;;5096893;28;20157;-82
2021/11/08 10:06:23;;;;;;;26.25;15.77;;;;;;;;;;5097427;28;20413;-82
2021/11/08 10:08:51;;;;;;;22.95;16.05;;;;;;;;;;5097110;28;20044;-82
2021/11/08 10:11:18;;;;;;;24.38;15.40;;;;;;;;;;5097375;28;20028;-82
2021/11/08 10:13:46;;;;;;;23.88;15.20;;;;;;;;;;5097480;28;20318;-82
2021/11/08 10:16:23;;;;;;;22.42;13.40;;;;;;;;;;5097650;28;20020;-82
2021/11/08 10:18:52;;;;;;;29.15;20.85;;;;;;;;;;5096309;28;20472;-81
2021/11/08 10:21:20;;;;;;;26.55;17.90;;;;;;;;;;5097252;28;20020;-83
2021/11/08 10:23:48;;;;;;;33.42;21.05;;;;;;;;;;5097376;28;20038;-82
2021/11/08 10:26:15;;;;;;;24.13;16.25;;;;;;;;;;5097282;28;20062;-82
2021/11/08 10:28:41;;;;;;;23.73;15.68;;;;;;;;;;5097238;28;20115;-84
2021/11/08 10:31:11;;;;;;;25.65;16.92;;;;;;;;;;5092852;28;20032;-82
2021/11/08 10:33:38;;;;;;;26.83;18.90;;;;;;;;;;5077277;28;20025;-82
2021/11/08 10:36:17;;;;;;;27.10;19.58;;;;;;;;;;5085061;28;20299;-82
2021/11/08 10:38:54;;;;;;;21.75;16.42;;;;;;;;;;5100359;28;20115;-82
2021/11/08 10:41:22;;;;;;;23.08;15.45;;;;;;;;;;5100215;28;20016;-83
2021/11/08 10:43:55;;;;;;;22.33;15.75;;;;;;;;;;5083953;28;20025;-82
2021/11/08 10:46:31;;;;;;;26.80;16.80;;;;;;;;;;5080987;28;20049;-82
2021/11/08 10:49:00;;;;;;;23.60;16.30;;;;;;;;;;5081246;28;20078;-82
2021/11/08 10:51:28;;;;;;;33.47;21.33;;;;;;;;;;5080672;28;20441;-82
2021/11/08 10:53:56;;;;;;;21.13;14.15;;;;;;;;;;5080885;28;20024;-82
2021/11/08 10:56:24;;;;;;;53.58;29.88;;;;;;;;;;5080799;28;20017;-82
2021/11/08 10:58:50;;;;;;;35.45;22.42;;;;;;;;;;5080458;28;20441;-82
2021/11/08 11:01:25;;;;;;;21.27;14.57;;;;;;;;;;5080574;28;20111;-82
2021/11/08 11:03:53;;;;;;;31.92;19.70;;;;;;;;;;5080578;28;20025;-82
2021/11/08 11:06:19;;;;;;;30.35;19.80;;;;;;;;;;5079741;28;20111;-82
2021/11/08 11:08:50;;;;;;;31.23;23.27;;;;;;;;;;5079368;28;20049;-82
2021/11/08 11:11:18;;;;;;;33.15;23.05;;;;;;;;;;5080464;28;20032;-82
2021/11/08 11:13:52;;;;;;;33.78;21.63;;;;;;;;;;5079324;28;20029;-82
2021/11/08 11:16:30;;;;;;;28.15;17.27;;;;;;;;;;5080565;28;20024;-82
2021/11/08 11:19:06;;;;;;;19.35;13.13;;;;;;;;;;5080433;28;20021;-82
2021/11/08 11:21:56;;;;;;;21.15;12.52;;;;;;;;;;5080320;28;20025;-82
2021/11/08 11:24:30;;;;;;;19.20;12.20;;;;;;;;;;5079086;28;20035;-83
2021/11/08 11:26:57;;;;;;;16.90;12.73;;;;;;;;;;5080136;28;20020;-83
2021/11/08 11:29:28;;;;;;;23.73;14.48;;;;;;;;;;5079307;28;20411;-82
2021/11/08 11:31:54;;;;;;;19.60;11.80;;;;;;;;;;5079886;28;20040;-82
2021/11/08 11:34:20;;;;;;;27.77;16.42;;;;;;;;;;5079844;28;20405;-83
2021/11/08 11:36:46;;;;;;;23.70;13.38;;;;;;;;;;5079987;28;20078;-82
2021/11/08 11:39:17;;;;;;;18.05;11.00;;;;;;;;;;5079958;28;20048;-82
2021/11/08 11:41:44;;;;;;;23.27;13.20;;;;;;;;;;5080121;28;20048;-82
2021/11/08 11:44:10;;;;;;;25.52;14.07;;;;;;;;;;5079819;28;20029;-81
2021/11/08 11:46:41;;;;;;;20.52;12.23;;;;;;;;;;5079775;28;20111;-82
2021/11/08 11:49:08;;;;;;;17.55;11.38;;;;;;;;;;5078796;28;20025;-82
2021/11/08 11:51:54;;;;;;;19.20;10.55;;;;;;;;;;5079514;28;20032;-82
2021/11/08 11:54:24;;;;;;;22.38;13.32;;;;;;;;;;5079551;28;20020;-82
2021/11/08 11:56:51;;;;;;;17.08;12.15;;;;;;;;;;5079614;28;20017;-82
2021/11/08 11:59:17;;;;;;;27.13;15.60;;;;;;;;;;5061842;28;20035;-83
2021/11/08 12:01:45;;;;;;;19.00;11.57;;;;;;;;;;5079793;28;20082;-82
2021/11/08 12:04:11;;;;;;;23.10;13.23;;;;;;;;;;5079453;28;20024;-82
2021/11/08 12:06:39;;;;;;;19.77;12.05;;;;;;;;;;5079719;28;20115;-82
2021/11/08 12:09:07;;;;;;;22.30;12.50;;;;;;;;;;5078507;28;20426;-82
2021/11/08 12:11:34;;;;;;;20.90;10.65;;;;;;;;;;5078579;28;20036;-82
2021/11/08 12:14:02;;;;;;;15.13;9.57;;;;;;;;;;5079362;28;20020;-82
2021/11/08 12:16:29;;;;;;;17.45;11.35;;;;;;;;;;5079578;28;20357;-82
2021/11/08 12:18:59;;;;;;;20.08;10.10;;;;;;;;;;5078987;28;20025;-83
2021/11/08 12:21:31;;;;;;;14.77;9.73;;;;;;;;;;5097758;28;20028;-84
2021/11/08 12:23:58;;;;;;;14.95;9.82;;;;;;;;;;5099634;28;20020;-83
2021/11/08 12:26:34;;;;;;;14.02;9.20;;;;;;;;;;5099464;28;20044;-84
2021/11/08 12:29:09;;;;;;;15.45;9.73;;;;;;;;;;5099640;28;20032;-83
2021/11/08 12:31:36;;;;;;;11.85;8.90;;;;;;;;;;5099474;28;20133;-84
2021/11/08 12:34:08;;;;;;;14.90;9.07;;;;;;;;;;5098659;28;20028;-84
2021/11/08 12:39:39;;;;;;;14.32;9.20;;;;;;;;;;5098994;28;20102;-83
2021/11/08 12:42:08;;;;;;;16.08;8.27;;;;;;;;;;5098036;28;20027;-84
2021/11/08 12:44:40;;;;;;;10.63;7.55;;;;;;;;;;5087711;28;20038;-84
2021/11/08 12:47:09;;;;;;;10.98;7.97;;;;;;;;;;5086268;28;20028;-84
2021/11/08 12:49:54;;;;;;;12.10;8.40;;;;;;;;;;5099070;28;20379;-83
2021/11/08 12:52:39;;;;;;;13.98;8.32;;;;;;;;;;5099238;28;20047;-83
2021/11/08 12:55:13;;;;;;;12.13;8.07;;;;;;;;;;5083323;28;20024;-84
2021/11/08 12:57:50;;;;;;;16.58;8.13;;;;;;;;;;5098564;28;20021;-84
2021/11/08 13:00:22;;;;;;;15.10;8.40;;;;;;;;;;5097588;28;20438;-84
2021/11/08 13:02:54;;;;;;;;;;;;;;;;;;5099451;28;20035;-86
2021/11/08 13:08:28;;;;;;;11.52;8.30;;;;;;;;;;5098381;28;20035;-88
2021/11/08 13:10:59;;;;;;;17.45;8.77;;;;;;;;;;5099353;28;20030;-88
2021/11/08 13:13:25;;;;;;;11.30;7.95;;;;;;;;;;5098899;28;20062;-88
2021/11/08 13:15:52;;;;;;;11.52;7.43;;;;;;;;;;5098033;28;20024;-88
2021/11/08 13:18:19;;;;;;;13.85;9.90;;;;;;;;;;5098189;28;20032;-88
2021/11/08 13:24:28;;;;;;;36.50;20.00;;;;;;;;;;5078737;28;20425;-88
2021/11/08 13:26:54;;;;;;;16.13;8.18;;;;;;;;;;5078237;28;20107;-88
2021/11/08 13:29:21;;;;;;;10.38;7.15;;;;;;;;;;5083939;28;20043;-88
2021/11/08 13:31:49;;;;;;;12.85;6.70;;;;;;;;;;5098829;28;20058;-88
2021/11/08 13:34:15;;;;;;;17.52;11.10;;;;;;;;;;5098340;28;20069;-87
2021/11/08 13:36:43;;;;;;;10.85;8.23;;;;;;;;;;5098585;28;20125;-87
2021/11/08 13:39:09;;;;;;;10.50;7.13;;;;;;;;;;5097704;28;20119;-88
2021/11/08 13:41:36;;;;;;;14.98;8.60;;;;;;;;;;5097888;28;20036;-88
2021/11/08 13:44:07;;;;;;;32.08;18.13;;;;;;;;;;5098232;28;20070;-87
2021/11/08 13:46:54;;;;;;;19.88;13.15;;;;;;;;;;5098273;28;20062;-88
2021/11/08 13:49:24;;;;;;;29.33;18.77;;;;;;;;;;5097240;28;20043;-88
2021/11/08 13:51:55;;;;;;;16.20;10.00;;;;;;;;;;5097101;28;20044;-89
2021/11/08 13:54:27;;;;;;;12.88;8.40;;;;;;;;;;5097917;28;20016;-86
2021/11/08 13:56:53;;;;;;;;;;;;;;;;;;5077453;28;20075;-85
2021/11/08 13:59:23;;;;;;;10.68;7.00;;;;;;;;;;5077695;28;19916;-87
2021/11/08 14:01:53;;;;;;;13.75;8.77;;;;;;;;;;5092408;28;20364;-87
2021/11/08 14:04:19;;;;;;;14.80;9.18;;;;;;;;;;5095664;28;20056;-87
2021/11/08 14:06:47;;;;;;;14.40;7.97;;;;;;;;;;5098292;28;20419;-88
2021/11/08 14:09:22;;;;;;;13.82;7.82;;;;;;;;;;5097599;28;20048;-86
2021/11/08 14:11:48;;;;;;;13.10;6.88;;;;;;;;;;5096794;28;20028;-87
2021/11/08 14:14:19;;;;;;;11.57;7.78;;;;;;;;;;5098070;28;20040;-88
2021/11/08 14:16:47;;;;;;;11.73;7.93;;;;;;;;;;5098288;28;20398;-89
2021/11/08 14:19:14;;;;;;;14.65;8.65;;;;;;;;;;5098014;28;20032;-88
2021/11/08 14:21:41;;;;;;;10.63;7.07;;;;;;;;;;5098303;28;20087;-89
2021/11/08 14:24:09;;;;;;;10.18;6.80;;;;;;;;;;5097862;28;20444;-89
2021/11/08 14:26:37;;;;;;;11.77;7.28;;;;;;;;;;5098188;28;20051;-90
2021/11/08 14:29:14;;;;;;;14.02;7.88;;;;;;;;;;5097034;28;20086;-90
2021/11/08 14:31:42;;;;;;;11.60;6.38;;;;;;;;;;5098002;28;20020;-89
2021/11/08 14:34:10;;;;;;;11.55;6.05;;;;;;;;;;5097442;28;20020;-89
2021/11/08 14:36:41;;;;;;;8.98;6.00;;;;;;;;;;5097674;28;20476;-90
2021/11/08 14:39:11;;;;;;;9.57;5.43;;;;;;;;;;5097052;28;20077;-90
2021/11/08 14:41:37;;;;;;;9.70;5.60;;;;;;;;;;5097258;28;20039;-91
2021/11/08 14:44:08;;;;;;;7.35;5.50;;;;;;;;;;5097619;28;20016;-90
2021/11/08 14:46:39;;;;;;;6.68;4.43;;;;;;;;;;5096761;28;20031;-89
2021/11/08 14:49:16;;;;;;;7.30;5.80;;;;;;;;;;5097904;28;20078;-88
2021/11/08 14:57:53;;;;;;;8.90;5.43;;;;;;;;;;5097915;28;20031;-88
2021/11/08 15:00:27;;;;;;;7.90;5.38;;;;;;;;;;5097676;28;20351;-88
2021/11/08 15:02:54;;;;;;;10.77;6.13;;;;;;;;;;5097622;28;20062;-89
2021/11/08 15:05:21;;;;;;;9.18;6.20;;;;;;;;;;5097405;28;20020;-88
2021/11/08 15:07:48;;;;;;;11.15;5.85;;;;;;;;;;5097077;28;20044;-88
2021/11/08 15:10:16;;;;;;;13.65;8.38;;;;;;;;;;5078381;28;20029;-87
2021/11/08 15:12:43;;;;;;;25.00;9.13;;;;;;;;;;5096255;28;20044;-89
2021/11/08 15:15:14;;;;;;;29.17;12.68;;;;;;;;;;5088303;28;20323;-87
2021/11/08 15:17:44;;;;;;;29.15;14.15;;;;;;;;;;5088632;28;20024;-87
2021/11/08 15:20:13;;;;;;;24.20;13.20;;;;;;;;;;5097519;28;20027;-87
2021/11/08 15:26:05;;;;;;;36.72;14.95;;;;;;;;;;5081048;28;20031;-88
2021/11/08 15:28:58;;;;;;;38.83;17.08;;;;;;;;;;5078656;28;20124;-88
2021/11/08 15:31:25;;;;;;;77.82;29.23;;;;;;;;;;5076027;28;20036;-87
2021/11/08 15:34:10;;;;;;;72.20;27.08;;;;;;;;;;5078682;28;20423;-87
2021/11/08 15:36:41;;;;;;;55.05;21.92;;;;;;;;;;5078782;28;20033;-87
2021/11/08 15:39:09;;;;;;;100.47;35.10;;;;;;;;;;5078792;28;20466;-88
2021/11/08 15:41:36;;;;;;;90.13;37.38;;;;;;;;;;5078657;28;20319;-88
2021/11/08 15:44:03;;;;;;;53.75;30.52;;;;;;;;;;5078779;28;20029;-86
2021/11/08 15:46:29;;;;;;;63.08;33.67;;;;;;;;;;5078620;28;20517;-88
2021/11/08 15:48:55;;;;;;;76.80;35.53;;;;;;;;;;5078643;28;20108;-88
2021/11/08 15:51:26;;;;;;;81.85;36.75;;;;;;;;;;5078595;28;20021;-87
2021/11/08 15:53:52;;;;;;;117.30;46.67;;;;;;;;;;5078261;28;20468;-87
2021/11/08 15:56:18;;;;;;;108.28;47.97;;;;;;;;;;5059686;28;20077;-87
2021/11/08 15:58:45;;;;;;;98.95;46.80;;;;;;;;;;5071695;28;20032;-88
2021/11/08 16:01:11;;;;;;;75.00;39.30;;;;;;;;;;5045752;28;20433;-88
2021/11/08 16:03:37;;;;;;;54.47;28.75;;;;;;;;;;5078467;28;20030;-87
2021/11/08 16:06:04;;;;;;;45.70;23.83;;;;;;;;;;5079240;28;20120;-88
2021/11/08 16:08:30;;;;;;;32.90;18.55;;;;;;;;;;5078960;28;20106;-88
2021/11/08 16:10:56;;;;;;;27.83;15.77;;;;;;;;;;5080043;28;20040;-88
2021/11/08 16:13:22;;;;;;;32.22;16.50;;;;;;;;;;5111085;28;20024;-87
2021/11/08 16:15:50;;;;;;;31.85;15.75;;;;;;;;;;5116675;28;20024;-87
2021/11/08 16:18:18;;;;;;;34.00;14.85;;;;;;;;;;5099091;28;20036;-87
2021/11/08 16:20:48;;;;;;;28.98;15.13;;;;;;;;;;5098930;28;20066;-88
2021/11/08 16:26:19;;;;;;;31.20;17.63;;;;;;;;;;5083856;28;20034;-88
2021/11/08 16:28:45;;;;;;;33.40;18.25;;;;;;;;;;5078456;28;20025;-87
2021/11/08 16:31:14;;;;;;;28.45;16.95;;;;;;;;;;5078450;28;20029;-87
2021/11/08 16:33:47;;;;;;;26.08;15.57;;;;;;;;;;5077591;28;20036;-88
2021/11/08 16:36:14;;;;;;;27.80;15.77;;;;;;;;;;5079370;28;20024;-87
2021/11/08 16:38:41;;;;;;;21.80;13.85;;;;;;;;;;5079607;28;20047;-87
2021/11/08 16:41:09;;;;;;;20.30;14.07;;;;;;;;;;5079209;28;20029;-87
2021/11/08 16:43:35;;;;;;;24.20;15.18;;;;;;;;;;5079357;28;20037;-87
2021/11/08 16:46:03;;;;;;;23.20;14.27;;;;;;;;;;5078098;28;20086;-87
2021/11/08 16:48:32;;;;;;;20.67;13.35;;;;;;;;;;5078005;28;20033;-87
2021/11/08 16:50:59;;;;;;;19.63;12.50;;;;;;;;;;5079067;28;20029;-87
2021/11/08 16:53:27;;;;;;;17.65;12.32;;;;;;;;;;5079153;28;20318;-88
2021/11/08 16:55:53;;;;;;;21.92;15.43;;;;;;;;;;5078890;28;20020;-88
2021/11/08 16:58:19;;;;;;;28.85;17.80;;;;;;;;;;5078927;28;20028;-88
2021/11/08 17:00:46;;;;;;;25.00;16.73;;;;;;;;;;5077724;28;20037;-88
2021/11/08 17:03:13;;;;;;;23.63;12.80;;;;;;;;;;5078780;28;20103;-88
2021/11/08 17:05:41;;;;;;;21.83;13.15;;;;;;;;;;5078921;28;20410;-88
2021/11/08 17:08:12;;;;;;;25.55;13.80;;;;;;;;;;5078885;28;20028;-88